Strona główna
METAR-TAF:

METAR-TAF

Lotnisko :

United States Naval Academy

Annapolis, Maryland, Stany Zjednoczone

Szerokość geograficzna: 38-59-29N, Długość geograficzna: 076-29-00W, wysokość: 2 m

Aktualna obserwacja pogody

Raport powstał 21 minut temu, godzina 17:54 UTC
Wiatr 12 kt od południowy wschód
Temperatura 28°C
Wilgotność 70%
Ciśnienie 1011 hPa
Widzialność: 16.1 km
bezchmurnie

METAR: KNAK 241754Z AUTO 13012KT 10SM CLR 28/22 A2986 RMK AO2 SLP114 T02830222 10283 20239 58010 $

czas: 14:15 (18:15 UTC)


TAF: brakujący

Obserwacja i prognoza pogody dla ponad 4000 lotnisk (raport METAR i TAF).

Dostępne stacje oznaczono żółtymi i czerwonymi punktami na mapie.

Najedź kursorem aby zobaczyć nazwę stacji.

Kliknij aby zobaczyć obserwacje i prognozy pogody.

Aby zmienić mapę: kliknij na zielony przycisk z czarnym krzyżykiem, aby powiększyć; na zielony przycisk z myślnikiem, aby pomniejszyć; na zielone strzałki, aby przejść do map sąsiednich.


METAR-TAF: